Time;durP1;ratioP1;P1;durP2;ratioP2;P2;SDS_P1;SDS_P2;PMS_P1;PMS_P2;Temp;Humidity;BMP_temperature;BMP_pressure;BME280_temperature;BME280_humidity;BME280_pressure;Samples;Min_cycle;Max_cycle;Signal;HPM_P1;HPM_P2
2024/01/05 00:00:35;;;;;;;9.43;2.40;;;5.40;99.90;;;;;;478477;248;27860;-66
2024/01/05 00:02:37;;;;;;;7.60;3.15;;;5.40;99.90;;;;;;478459;248;27982;-66
2024/01/05 00:04:37;;;;;;;6.22;2.30;;;5.40;99.90;;;;;;478429;248;27490;-66
2024/01/05 00:06:39;;;;;;;6.03;2.05;;;5.40;99.90;;;;;;478469;248;27506;-66
2024/01/05 00:08:40;;;;;;;6.20;2.30;;;5.40;99.90;;;;;;478416;248;27421;-67
2024/01/05 00:10:41;;;;;;;9.13;2.83;;;5.30;99.90;;;;;;478421;248;27407;-66
2024/01/05 00:12:42;;;;;;;12.82;3.25;;;5.30;99.90;;;;;;478467;248;27919;-65
2024/01/05 00:14:44;;;;;;;8.13;2.80;;;5.30;99.90;;;;;;478443;248;27411;-66
2024/01/05 00:16:46;;;;;;;8.38;3.58;;;5.30;99.90;;;;;;478469;248;27415;-65
2024/01/05 00:18:46;;;;;;;5.05;2.65;;;5.30;99.90;;;;;;478415;248;27490;-66
2024/01/05 00:20:47;;;;;;;9.93;2.70;;;5.30;99.90;;;;;;478461;248;27415;-66
2024/01/05 00:22:49;;;;;;;8.43;3.05;;;5.30;99.90;;;;;;478457;248;27421;-66
2024/01/05 00:24:50;;;;;;;7.03;2.65;;;5.30;99.90;;;;;;478430;248;27506;-66
2024/01/05 00:26:52;;;;;;;11.38;3.30;;;5.30;99.90;;;;;;478454;248;27994;-66
2024/01/05 00:28:53;;;;;;;12.45;2.75;;;5.30;99.90;;;;;;478460;247;27988;-66
2024/01/05 00:30:54;;;;;;;10.05;3.20;;;5.30;99.90;;;;;;478456;248;27407;-66
2024/01/05 00:32:55;;;;;;;7.12;2.92;;;5.30;99.90;;;;;;478462;248;27499;-65
2024/01/05 00:34:56;;;;;;;8.27;2.67;;;5.30;99.90;;;;;;478430;248;27502;-66
2024/01/05 00:36:57;;;;;;;7.37;2.55;;;5.30;99.90;;;;;;478396;248;27419;-65
2024/01/05 00:38:59;;;;;;;8.68;2.90;;;5.30;99.90;;;;;;478443;248;27419;-66
2024/01/05 00:41:00;;;;;;;9.85;3.15;;;5.20;99.90;;;;;;478454;248;28031;-67
2024/01/05 00:43:01;;;;;;;8.10;2.55;;;5.20;99.90;;;;;;478457;248;27993;-65
2024/01/05 00:45:03;;;;;;;5.75;2.42;;;5.20;99.90;;;;;;478434;248;27419;-66
2024/01/05 00:47:04;;;;;;;12.07;2.87;;;5.20;99.90;;;;;;478455;248;27427;-66
2024/01/05 00:49:06;;;;;;;6.07;2.53;;;5.30;99.90;;;;;;478459;248;27498;-66
2024/01/05 00:51:07;;;;;;;7.40;2.70;;;5.40;99.90;;;;;;478456;248;27510;-66
2024/01/05 00:53:08;;;;;;;5.45;2.50;;;5.30;99.90;;;;;;478449;248;27507;-65
2024/01/05 00:55:09;;;;;;;9.25;2.92;;;5.30;99.90;;;;;;478425;248;27988;-66
2024/01/05 00:57:10;;;;;;;12.70;4.50;;;5.30;99.90;;;;;;478453;248;27886;-66
2024/01/05 00:59:11;;;;;;;10.93;2.50;;;5.40;99.90;;;;;;478459;248;27478;-65
2024/01/05 01:01:14;;;;;;;14.30;3.97;;;5.40;99.90;;;;;;478449;248;27422;-65
2024/01/05 01:03:14;;;;;;;6.78;2.75;;;5.40;99.90;;;;;;478407;248;27423;-65
2024/01/05 01:05:15;;;;;;;10.93;3.28;;;5.40;99.90;;;;;;478427;248;27498;-65
2024/01/05 01:07:16;;;;;;;7.12;2.67;;;5.40;99.90;;;;;;478456;248;27538;-66
2024/01/05 01:09:18;;;;;;;9.95;2.80;;;5.30;99.90;;;;;;478451;248;27834;-65
2024/01/05 01:11:19;;;;;;;14.30;3.37;;;5.30;99.90;;;;;;478467;248;27910;-65
2024/01/05 01:13:20;;;;;;;10.05;3.90;;;5.40;99.90;;;;;;478454;248;27415;-66
2024/01/05 01:15:21;;;;;;;8.40;2.80;;;5.30;99.90;;;;;;478453;248;27510;-65
2024/01/05 01:17:23;;;;;;;8.32;2.90;;;5.30;99.90;;;;;;478452;248;27415;-66
2024/01/05 01:19:24;;;;;;;12.80;5.28;;;5.30;99.90;;;;;;478416;248;27411;-65
2024/01/05 01:21:25;;;;;;;11.02;3.72;;;5.30;99.90;;;;;;478432;248;27439;-65
2024/01/05 01:23:26;;;;;;;8.80;3.20;;;5.30;99.90;;;;;;478420;248;27891;-66
2024/01/05 01:25:28;;;;;;;10.10;3.72;;;5.40;99.90;;;;;;478396;247;27887;-66
2024/01/05 01:27:29;;;;;;;6.25;3.30;;;5.50;99.90;;;;;;478463;247;27521;-66
2024/01/05 01:29:30;;;;;;;6.12;3.40;;;5.50;99.90;;;;;;478465;248;27419;-66
2024/01/05 01:31:32;;;;;;;12.50;3.33;;;5.60;99.90;;;;;;478462;247;27516;-66
2024/01/05 01:33:33;;;;;;;8.07;3.10;;;5.70;99.90;;;;;;478458;248;27418;-66
2024/01/05 01:35:34;;;;;;;9.18;3.05;;;5.70;99.90;;;;;;478438;248;27876;-65
2024/01/05 01:37:35;;;;;;;8.77;3.28;;;5.80;99.90;;;;;;478454;248;27883;-66
2024/01/05 01:39:37;;;;;;;10.18;3.10;;;5.80;99.90;;;;;;478465;248;27398;-67
2024/01/05 01:41:38;;;;;;;9.07;2.40;;;5.90;99.90;;;;;;478348;248;27497;-66
2024/01/05 01:43:39;;;;;;;9.00;2.83;;;5.90;99.90;;;;;;478426;248;27438;-65
2024/01/05 01:45:40;;;;;;;7.30;2.47;;;6.00;99.90;;;;;;478467;248;27492;-65
2024/01/05 01:47:42;;;;;;;9.07;2.55;;;6.00;99.90;;;;;;478455;247;27424;-66
2024/01/05 01:49:43;;;;;;;4.50;2.58;;;6.10;99.90;;;;;;478468;248;27883;-66
2024/01/05 01:51:45;;;;;;;7.07;2.12;;;6.00;99.90;;;;;;478440;248;27970;-66
2024/01/05 01:53:45;;;;;;;5.57;2.40;;;6.10;99.90;;;;;;478430;248;27486;-66
2024/01/05 01:55:47;;;;;;;9.50;2.80;;;6.00;99.90;;;;;;478468;248;27486;-66
2024/01/05 01:57:48;;;;;;;8.48;2.50;;;5.90;99.90;;;;;;478447;248;27426;-65
2024/01/05 01:59:49;;;;;;;5.20;2.47;;;5.90;99.90;;;;;;478459;248;27434;-66
2024/01/05 02:01:50;;;;;;;5.90;2.53;;;5.80;99.90;;;;;;478451;248;27895;-66
2024/01/05 02:03:52;;;;;;;7.30;2.28;;;5.80;99.90;;;;;;478417;247;27897;-66
2024/01/05 02:05:53;;;;;;;4.62;2.45;;;5.90;99.90;;;;;;478471;248;27502;-68
2024/01/05 02:07:54;;;;;;;5.72;2.40;;;5.90;99.90;;;;;;478454;248;27490;-66
2024/01/05 02:09:55;;;;;;;6.82;2.78;;;5.90;99.90;;;;;;478434;246;27449;-67
2024/01/05 02:11:57;;;;;;;5.87;2.90;;;6.00;99.90;;;;;;478357;248;27510;-66
2024/01/05 02:13:58;;;;;;;8.10;3.30;;;6.00;99.90;;;;;;478441;248;27423;-66
2024/01/05 02:15:59;;;;;;;5.03;2.28;;;5.90;99.90;;;;;;478456;248;27915;-66
2024/01/05 02:18:00;;;;;;;8.15;2.60;;;5.90;99.90;;;;;;478461;248;27945;-66
2024/01/05 02:20:02;;;;;;;7.28;2.60;;;5.80;99.90;;;;;;478483;248;27415;-65
2024/01/05 02:22:03;;;;;;;11.12;2.90;;;5.90;99.90;;;;;;478476;248;27490;-66
2024/01/05 02:24:04;;;;;;;4.57;2.50;;;5.80;99.90;;;;;;478452;248;27517;-66
2024/01/05 02:26:05;;;;;;;12.67;2.83;;;5.80;99.90;;;;;;478485;247;28758;-67
2024/01/05 02:28:07;;;;;;;11.95;3.00;;;5.80;99.90;;;;;;478477;246;28776;-66
2024/01/05 02:30:08;;;;;;;7.17;2.40;;;5.80;99.90;;;;;;478484;248;27887;-66
2024/01/05 02:32:09;;;;;;;2.87;2.20;;;5.80;99.90;;;;;;478474;248;29265;-68
2024/01/05 02:34:10;;;;;;;6.95;2.30;;;5.70;99.90;;;;;;478445;248;27881;-66
2024/01/05 02:36:12;;;;;;;9.15;2.72;;;5.70;99.90;;;;;;478476;248;27534;-66
2024/01/05 02:38:13;;;;;;;7.95;2.40;;;5.80;99.90;;;;;;478470;248;27391;-66
2024/01/05 02:40:14;;;;;;;7.85;3.55;;;5.80;99.90;;;;;;478473;248;27411;-66
2024/01/05 02:42:16;;;;;;;6.62;2.70;;;5.90;99.90;;;;;;478465;248;27423;-66
2024/01/05 02:44:17;;;;;;;6.32;2.47;;;6.00;99.90;;;;;;478451;248;27431;-66
2024/01/05 02:46:18;;;;;;;3.33;2.13;;;6.00;99.90;;;;;;478489;248;27950;-66
2024/01/05 02:48:19;;;;;;;4.85;2.25;;;6.10;99.90;;;;;;478447;248;29741;-66
2024/01/05 02:50:21;;;;;;;5.53;2.47;;;6.20;99.90;;;;;;478381;248;27403;-67
2024/01/05 02:52:22;;;;;;;7.40;2.67;;;6.20;99.90;;;;;;478466;248;27505;-66
2024/01/05 02:54:23;;;;;;;9.23;3.47;;;6.20;99.90;;;;;;478445;248;27417;-66
2024/01/05 02:56:24;;;;;;;8.30;3.20;;;6.30;99.90;;;;;;478485;248;27479;-67
2024/01/05 02:58:26;;;;;;;4.97;2.10;;;6.40;99.90;;;;;;478476;248;27506;-68
2024/01/05 03:00:27;;;;;;;6.07;2.08;;;6.40;99.90;;;;;;478432;248;29234;-66
2024/01/05 03:02:28;;;;;;;5.45;2.50;;;6.40;99.90;;;;;;478480;248;27966;-67
2024/01/05 03:04:29;;;;;;;5.53;2.40;;;6.40;99.90;;;;;;478456;248;27415;-68
2024/01/05 03:06:31;;;;;;;6.22;2.25;;;6.40;99.90;;;;;;478480;248;27411;-67
2024/01/05 03:08:32;;;;;;;9.88;2.20;;;6.40;99.90;;;;;;478481;248;27419;-67
2024/01/05 03:10:33;;;;;;;7.72;2.80;;;6.40;99.90;;;;;;478476;248;27409;-66
2024/01/05 03:12:34;;;;;;;3.92;2.20;;;6.40;99.90;;;;;;478462;248;27415;-66
2024/01/05 03:14:36;;;;;;;11.10;2.50;;;6.50;99.90;;;;;;478455;248;28350;-66
2024/01/05 03:16:37;;;;;;;4.20;2.03;;;6.50;99.90;;;;;;478468;248;27506;-66
2024/01/05 03:18:38;;;;;;;3.12;1.85;;;6.50;99.90;;;;;;478474;248;27418;-66
2024/01/05 03:20:40;;;;;;;4.17;2.00;;;6.50;99.90;;;;;;478483;247;27526;-66
2024/01/05 03:22:41;;;;;;;5.30;1.97;;;6.50;99.90;;;;;;478430;247;28074;-66
2024/01/05 03:24:43;;;;;;;7.23;2.30;;;6.50;99.90;;;;;;478432;248;28864;-68
2024/01/05 03:26:43;;;;;;;6.30;2.40;;;6.50;99.90;;;;;;478421;248;27962;-66
2024/01/05 03:28:44;;;;;;;6.87;2.70;;;6.50;99.90;;;;;;478465;248;28849;-66
2024/01/05 03:30:46;;;;;;;4.90;2.40;;;6.40;99.90;;;;;;478472;248;27632;-67
2024/01/05 03:32:47;;;;;;;7.22;2.22;;;6.40;99.90;;;;;;478474;248;28338;-66
2024/01/05 03:34:48;;;;;;;5.77;2.57;;;6.40;99.90;;;;;;478434;247;27997;-68
2024/01/05 03:36:49;;;;;;;8.93;2.50;;;6.40;99.90;;;;;;478476;248;28825;-66
2024/01/05 03:38:51;;;;;;;8.70;2.40;;;6.40;99.90;;;;;;478472;248;27419;-66
2024/01/05 03:40:52;;;;;;;5.32;2.42;;;6.50;99.90;;;;;;478464;248;27422;-66
2024/01/05 03:42:53;;;;;;;5.82;2.70;;;6.40;99.90;;;;;;478471;248;27403;-66
2024/01/05 03:44:54;;;;;;;6.93;2.50;;;6.40;99.90;;;;;;478446;248;27443;-66
2024/01/05 03:46:56;;;;;;;7.00;2.47;;;6.40;99.90;;;;;;478479;247;27524;-66
2024/01/05 03:48:57;;;;;;;7.07;2.75;;;6.50;99.90;;;;;;478457;248;29267;-66
2024/01/05 03:50:58;;;;;;;9.27;2.40;;;6.50;99.90;;;;;;478479;248;27960;-68
2024/01/05 03:53:00;;;;;;;7.10;2.37;;;6.50;99.90;;;;;;478469;248;27407;-66
2024/01/05 03:55:01;;;;;;;7.47;2.70;;;6.50;99.90;;;;;;478447;248;27423;-67
2024/01/05 03:57:02;;;;;;;5.05;2.40;;;6.60;99.90;;;;;;478470;248;27514;-66
2024/01/05 03:59:03;;;;;;;4.70;2.13;;;6.60;99.90;;;;;;478462;248;27406;-67
2024/01/05 04:01:05;;;;;;;5.12;2.10;;;6.60;99.90;;;;;;478475;248;28839;-68
2024/01/05 04:03:06;;;;;;;6.10;2.20;;;6.60;99.90;;;;;;478470;248;28019;-66
2024/01/05 04:05:08;;;;;;;7.37;2.25;;;6.60;99.90;;;;;;478432;248;29333;-67
2024/01/05 04:07:08;;;;;;;5.97;2.65;;;6.60;99.90;;;;;;478463;248;27882;-66
2024/01/05 04:09:10;;;;;;;5.93;2.57;;;6.60;99.90;;;;;;478460;248;27409;-67
2024/01/05 04:11:11;;;;;;;9.68;3.47;;;6.60;99.90;;;;;;478466;248;28106;-66
2024/01/05 04:13:12;;;;;;;10.40;2.57;;;6.70;99.90;;;;;;478490;248;27411;-66
2024/01/05 04:15:14;;;;;;;6.57;2.17;;;6.70;99.90;;;;;;478442;248;28765;-66
2024/01/05 04:17:15;;;;;;;4.28;2.05;;;6.60;99.90;;;;;;478472;248;27419;-66
2024/01/05 04:19:16;;;;;;;6.57;2.30;;;6.70;99.90;;;;;;478463;248;27998;-66
2024/01/05 04:21:17;;;;;;;4.62;2.87;;;6.70;99.90;;;;;;478473;248;27892;-66
2024/01/05 04:23:18;;;;;;;6.12;2.20;;;6.60;99.90;;;;;;478426;248;27394;-67
2024/01/05 04:25:20;;;;;;;8.93;2.90;;;6.60;99.90;;;;;;478454;247;27423;-66
2024/01/05 04:27:21;;;;;;;4.03;1.98;;;6.60;99.90;;;;;;478378;248;27418;-68
2024/01/05 04:29:22;;;;;;;6.57;1.92;;;6.70;99.90;;;;;;478472;248;27426;-66
2024/01/05 04:31:23;;;;;;;8.20;2.50;;;6.70;99.90;;;;;;478429;248;27462;-66
2024/01/05 04:33:25;;;;;;;5.90;2.25;;;6.70;99.90;;;;;;478459;248;28231;-66
2024/01/05 04:35:26;;;;;;;3.20;2.13;;;6.70;99.90;;;;;;478447;248;27951;-66
2024/01/05 04:37:27;;;;;;;6.55;3.03;;;6.70;99.90;;;;;;478470;248;29023;-67
2024/01/05 04:39:28;;;;;;;11.85;3.45;;;6.70;99.90;;;;;;478463;248;27387;-66
2024/01/05 04:41:30;;;;;;;4.93;2.40;;;6.70;99.90;;;;;;478447;248;27522;-67
2024/01/05 04:43:31;;;;;;;8.05;3.60;;;6.70;99.90;;;;;;478468;248;27414;-67
2024/01/05 04:45:32;;;;;;;3.87;2.30;;;6.80;99.90;;;;;;478349;248;27498;-66
2024/01/05 04:47:34;;;;;;;7.53;2.30;;;6.80;99.90;;;;;;478460;248;28060;-67
2024/01/05 04:49:35;;;;;;;5.73;2.47;;;6.70;99.90;;;;;;478432;248;27890;-66
2024/01/05 04:51:36;;;;;;;6.63;2.70;;;6.80;99.90;;;;;;478457;248;29071;-66
2024/01/05 04:53:37;;;;;;;11.07;3.70;;;6.80;99.90;;;;;;478460;248;29328;-68
2024/01/05 04:55:38;;;;;;;9.27;2.77;;;6.80;99.90;;;;;;478476;247;27423;-66
2024/01/05 04:57:40;;;;;;;6.97;2.72;;;6.80;99.90;;;;;;478476;248;28795;-67
2024/01/05 04:59:41;;;;;;;7.10;2.67;;;6.70;99.90;;;;;;478470;248;27403;-66
2024/01/05 05:01:42;;;;;;;6.20;2.67;;;6.70;99.90;;;;;;478458;248;27903;-66
2024/01/05 05:03:43;;;;;;;6.10;2.57;;;6.70;99.90;;;;;;478432;248;28766;-67
2024/01/05 05:05:45;;;;;;;10.47;2.70;;;6.70;99.90;;;;;;478471;248;28538;-66
2024/01/05 05:07:46;;;;;;;4.70;2.40;;;6.60;99.90;;;;;;478466;248;27920;-66
2024/01/05 05:09:47;;;;;;;3.50;2.13;;;6.60;99.90;;;;;;478466;248;28202;-66
2024/01/05 05:11:48;;;;;;;9.13;2.93;;;6.60;99.90;;;;;;478453;248;29216;-66
2024/01/05 05:13:50;;;;;;;7.18;2.72;;;6.60;99.90;;;;;;478437;246;29335;-67
2024/01/05 05:15:51;;;;;;;8.60;2.22;;;6.60;99.90;;;;;;478479;248;27913;-67
2024/01/05 05:17:53;;;;;;;7.90;3.05;;;6.60;99.90;;;;;;478470;248;27415;-67
2024/01/05 05:19:55;;;;;;;8.87;2.50;;;6.60;99.90;;;;;;478444;248;27399;-66
2024/01/05 05:21:55;;;;;;;9.07;3.03;;;6.60;99.90;;;;;;478396;248;28111;-66
2024/01/05 05:23:56;;;;;;;7.50;2.70;;;6.50;99.90;;;;;;478437;248;27403;-66
2024/01/05 05:25:57;;;;;;;6.33;2.30;;;6.50;99.90;;;;;;478467;248;27502;-66
2024/01/05 05:27:59;;;;;;;5.50;2.67;;;6.50;99.90;;;;;;478452;248;28450;-67
2024/01/05 05:30:00;;;;;;;8.37;3.07;;;6.60;99.90;;;;;;478446;248;28963;-68
2024/01/05 05:32:01;;;;;;;7.43;2.90;;;6.60;99.90;;;;;;478431;248;29350;-66
2024/01/05 05:34:02;;;;;;;11.45;2.50;;;6.60;99.90;;;;;;478439;248;27878;-67
2024/01/05 05:36:04;;;;;;;5.10;2.23;;;6.50;99.90;;;;;;478469;247;27395;-66
2024/01/05 05:38:06;;;;;;;7.37;2.33;;;6.50;99.90;;;;;;478455;248;28176;-66
2024/01/05 05:40:06;;;;;;;4.70;2.37;;;6.50;99.90;;;;;;478421;248;28834;-67
2024/01/05 05:42:07;;;;;;;5.82;2.45;;;6.50;99.90;;;;;;478454;248;28647;-66
2024/01/05 05:44:09;;;;;;;7.20;2.40;;;6.50;99.90;;;;;;478442;248;27431;-66
2024/01/05 05:46:10;;;;;;;7.90;3.17;;;6.60;99.90;;;;;;478447;248;28691;-66
2024/01/05 05:48:11;;;;;;;8.30;2.40;;;6.60;99.90;;;;;;478471;248;27979;-66
2024/01/05 05:50:13;;;;;;;9.45;2.80;;;6.50;99.90;;;;;;478466;248;28842;-67
2024/01/05 05:52:14;;;;;;;4.77;2.50;;;6.50;99.90;;;;;;478466;248;27982;-66
2024/01/05 05:54:15;;;;;;;9.82;2.60;;;6.50;99.90;;;;;;478457;248;28071;-68
2024/01/05 05:56:16;;;;;;;6.65;2.45;;;6.50;99.90;;;;;;478501;248;27414;-67
2024/01/05 05:58:17;;;;;;;10.02;2.87;;;6.50;99.90;;;;;;478488;248;27494;-66
2024/01/05 06:00:19;;;;;;;8.20;2.90;;;6.50;99.90;;;;;;478481;248;27482;-67
2024/01/05 06:02:20;;;;;;;3.80;2.70;;;6.50;99.90;;;;;;478478;248;28781;-66
2024/01/05 06:04:21;;;;;;;7.40;3.07;;;6.50;99.90;;;;;;478455;248;28754;-67
2024/01/05 06:06:23;;;;;;;7.50;2.90;;;6.50;99.90;;;;;;478492;248;27786;-67
2024/01/05 06:08:24;;;;;;;7.40;2.63;;;6.50;99.90;;;;;;478478;248;29261;-66
2024/01/05 06:10:25;;;;;;;9.73;3.40;;;6.40;99.90;;;;;;478493;248;28443;-66
2024/01/05 06:12:26;;;;;;;7.87;3.13;;;6.30;99.90;;;;;;478479;248;29299;-66
2024/01/05 06:14:27;;;;;;;8.13;3.12;;;6.20;99.90;;;;;;478460;248;27986;-67
2024/01/05 06:16:29;;;;;;;4.53;2.50;;;6.10;99.90;;;;;;478476;248;27403;-67
2024/01/05 06:18:30;;;;;;;7.60;2.83;;;6.00;99.90;;;;;;478490;248;27939;-66
2024/01/05 06:20:31;;;;;;;4.07;2.50;;;6.00;99.90;;;;;;478482;248;27420;-66
2024/01/05 06:22:32;;;;;;;11.63;2.90;;;5.90;99.90;;;;;;478467;248;28757;-67
2024/01/05 06:24:34;;;;;;;5.07;2.40;;;5.90;99.90;;;;;;478451;247;27411;-66
2024/01/05 06:26:35;;;;;;;5.53;2.70;;;6.00;99.90;;;;;;478484;248;27434;-66
2024/01/05 06:28:36;;;;;;;7.45;2.53;;;6.00;99.90;;;;;;478489;248;27862;-67
2024/01/05 06:30:37;;;;;;;9.63;2.87;;;6.10;99.90;;;;;;478494;248;27890;-68
2024/01/05 06:32:39;;;;;;;5.60;3.00;;;6.10;99.90;;;;;;478477;248;27419;-67
2024/01/05 06:34:40;;;;;;;10.73;3.47;;;6.20;99.90;;;;;;478465;248;27537;-66
2024/01/05 06:36:41;;;;;;;6.68;3.35;;;6.20;99.90;;;;;;478476;248;27415;-66
2024/01/05 06:38:42;;;;;;;9.38;3.40;;;6.30;99.90;;;;;;478481;248;27495;-66
2024/01/05 06:40:44;;;;;;;9.70;2.77;;;6.30;99.90;;;;;;478482;248;27475;-66
2024/01/05 06:42:45;;;;;;;5.20;2.40;;;6.30;99.90;;;;;;478472;248;28488;-67
2024/01/05 06:44:47;;;;;;;9.18;2.70;;;6.30;99.90;;;;;;478434;248;29230;-66
2024/01/05 06:46:50;;;;;;;6.45;3.03;;;6.40;99.90;;;;;;478468;248;27895;-67
2024/01/05 06:48:49;;;;;;;5.47;2.90;;;6.40;99.90;;;;;;478348;248;27417;-66
2024/01/05 06:50:50;;;;;;;8.50;3.27;;;6.40;99.90;;;;;;478474;248;28095;-66
2024/01/05 06:52:51;;;;;;;7.30;2.60;;;6.40;99.90;;;;;;478488;248;28587;-67
2024/01/05 06:54:52;;;;;;;13.60;3.55;;;6.40;99.90;;;;;;478441;247;28769;-66
2024/01/05 06:56:54;;;;;;;8.18;3.15;;;6.40;99.90;;;;;;478487;247;27422;-66
2024/01/05 06:58:55;;;;;;;3.40;2.53;;;6.40;99.90;;;;;;478483;248;27423;-68
2024/01/05 07:00:56;;;;;;;4.60;2.60;;;6.40;99.90;;;;;;478464;248;27744;-66
2024/01/05 07:02:57;;;;;;;6.62;2.87;;;6.40;99.90;;;;;;478474;248;29260;-67
2024/01/05 07:04:59;;;;;;;7.10;2.75;;;6.50;99.90;;;;;;478443;248;27889;-66
2024/01/05 07:07:00;;;;;;;7.03;3.10;;;6.40;99.90;;;;;;478493;248;27403;-66
2024/01/05 07:09:01;;;;;;;6.97;2.62;;;6.40;99.90;;;;;;478478;248;27430;-67
2024/01/05 07:11:03;;;;;;;10.07;2.97;;;6.40;99.90;;;;;;478483;248;27411;-66
2024/01/05 07:13:04;;;;;;;12.18;3.70;;;6.40;99.90;;;;;;478475;248;27411;-66
2024/01/05 07:15:05;;;;;;;13.93;2.80;;;6.30;99.90;;;;;;478438;248;28046;-66
2024/01/05 07:17:06;;;;;;;12.02;3.03;;;6.40;99.90;;;;;;478483;248;27887;-66
2024/01/05 07:19:08;;;;;;;9.35;3.30;;;6.30;99.90;;;;;;478480;248;27527;-66
2024/01/05 07:21:09;;;;;;;7.72;2.85;;;6.40;99.90;;;;;;478464;248;27394;-66
2024/01/05 07:23:10;;;;;;;7.77;3.37;;;6.40;99.90;;;;;;478483;248;27438;-67
2024/01/05 07:25:11;;;;;;;4.32;2.35;;;6.40;99.90;;;;;;478440;248;28883;-67
2024/01/05 07:27:15;;;;;;;6.82;3.10;;;6.30;99.90;;;;;;478476;248;27415;-66
2024/01/05 07:29:14;;;;;;;6.57;2.70;;;6.30;99.90;;;;;;478375;248;27911;-66
2024/01/05 07:31:15;;;;;;;6.10;2.72;;;6.30;99.90;;;;;;478475;248;27974;-66
2024/01/05 07:33:16;;;;;;;8.95;2.90;;;6.30;99.90;;;;;;478462;248;27399;-66
2024/01/05 07:35:18;;;;;;;7.50;2.50;;;6.20;99.90;;;;;;478456;248;27430;-67
2024/01/05 07:37:19;;;;;;;8.95;3.00;;;6.30;99.90;;;;;;478468;248;28846;-66
2024/01/05 07:39:20;;;;;;;6.32;2.90;;;6.20;99.90;;;;;;478476;247;27422;-66
2024/01/05 07:41:21;;;;;;;6.43;3.05;;;6.20;99.90;;;;;;478479;248;27399;-66
2024/01/05 07:43:23;;;;;;;5.17;2.80;;;6.20;99.90;;;;;;478475;248;27799;-66
2024/01/05 07:45:24;;;;;;;10.55;3.47;;;6.20;99.90;;;;;;478443;248;29332;-67
2024/01/05 07:47:25;;;;;;;8.98;2.85;;;6.20;99.90;;;;;;478484;248;27871;-67
2024/01/05 07:49:26;;;;;;;9.43;3.58;;;6.20;99.90;;;;;;478476;248;27415;-66
2024/01/05 07:51:28;;;;;;;9.27;2.80;;;6.10;99.90;;;;;;478477;248;27426;-67
2024/01/05 07:53:29;;;;;;;4.20;2.70;;;6.10;99.90;;;;;;478493;247;27491;-66
2024/01/05 07:55:30;;;;;;;5.53;3.00;;;6.10;99.90;;;;;;478458;248;27427;-67
2024/01/05 07:57:31;;;;;;;6.43;2.65;;;6.10;99.90;;;;;;478474;248;28765;-66
2024/01/05 07:59:33;;;;;;;6.22;2.92;;;6.00;99.90;;;;;;478477;248;27973;-66
2024/01/05 08:01:34;;;;;;;8.32;3.22;;;6.00;99.90;;;;;;478467;248;27937;-67
2024/01/05 08:03:35;;;;;;;7.93;3.00;;;6.00;99.90;;;;;;478483;248;27411;-68
2024/01/05 08:05:37;;;;;;;10.57;2.87;;;6.00;99.90;;;;;;478471;248;27419;-67
2024/01/05 08:07:38;;;;;;;11.05;2.80;;;5.90;99.90;;;;;;478473;247;28533;-66
2024/01/05 08:09:39;;;;;;;7.57;3.55;;;5.90;99.90;;;;;;478483;248;27419;-66
2024/01/05 08:11:40;;;;;;;5.57;2.83;;;5.90;99.90;;;;;;478463;248;27959;-66
2024/01/05 08:13:45;;;;;;;7.43;3.17;;;5.90;99.90;;;;;;478429;248;27988;-66
2024/01/05 08:15:43;;;;;;;7.43;3.55;;;5.90;99.90;;;;;;478320;248;27482;-67
2024/01/05 08:17:44;;;;;;;5.57;2.78;;;5.90;99.90;;;;;;478445;248;27411;-68
2024/01/05 08:19:45;;;;;;;21.07;3.30;;;5.80;99.90;;;;;;478475;248;27581;-66
2024/01/05 08:21:47;;;;;;;10.02;3.33;;;5.90;99.90;;;;;;478452;248;28827;-67
2024/01/05 08:23:48;;;;;;;6.80;3.15;;;5.90;99.90;;;;;;478432;248;27411;-66
2024/01/05 08:25:49;;;;;;;7.60;3.00;;;5.90;99.90;;;;;;478472;248;27957;-66
2024/01/05 08:27:50;;;;;;;11.00;3.33;;;5.90;99.90;;;;;;478459;248;27902;-67
2024/01/05 08:29:52;;;;;;;6.55;2.92;;;5.90;99.90;;;;;;478480;248;27407;-66
2024/01/05 08:31:53;;;;;;;10.68;3.25;;;6.00;99.90;;;;;;478469;248;27431;-67
2024/01/05 08:33:54;;;;;;;7.62;3.10;;;6.00;99.90;;;;;;478418;248;27415;-66
2024/01/05 08:35:55;;;;;;;7.85;2.95;;;6.10;99.90;;;;;;478476;248;27415;-66
2024/01/05 08:37:57;;;;;;;12.50;3.15;;;6.10;99.90;;;;;;478470;248;27978;-66
2024/01/05 08:39:58;;;;;;;3.55;2.47;;;6.20;99.90;;;;;;478475;248;28018;-66
2024/01/05 08:41:59;;;;;;;4.47;2.40;;;6.30;99.90;;;;;;478441;248;27391;-67
2024/01/05 08:44:00;;;;;;;9.82;3.62;;;6.30;99.90;;;;;;478444;247;27442;-68
2024/01/05 08:46:02;;;;;;;8.10;3.08;;;6.30;99.90;;;;;;478468;248;27411;-66
2024/01/05 08:48:04;;;;;;;6.43;2.70;;;6.40;99.90;;;;;;478484;248;27426;-67
2024/01/05 08:50:04;;;;;;;6.37;2.40;;;6.40;99.90;;;;;;478401;248;28834;-66
2024/01/05 08:52:05;;;;;;;5.83;2.50;;;6.40;99.90;;;;;;478459;248;27524;-67
2024/01/05 08:54:07;;;;;;;7.27;2.73;;;6.40;99.90;;;;;;478432;248;28468;-67
2024/01/05 08:56:08;;;;;;;7.47;2.93;;;6.40;99.90;;;;;;478464;248;28369;-66
2024/01/05 08:58:10;;;;;;;3.83;2.20;;;6.40;99.90;;;;;;478455;248;29230;-66
2024/01/05 09:00:11;;;;;;;6.75;2.37;;;6.50;99.90;;;;;;478447;248;28389;-66
2024/01/05 09:02:12;;;;;;;8.13;3.00;;;6.50;99.90;;;;;;478435;248;27395;-66
2024/01/05 09:04:14;;;;;;;3.73;2.23;;;6.60;99.90;;;;;;478440;248;27955;-67
2024/01/05 09:06:14;;;;;;;10.07;2.70;;;6.60;99.90;;;;;;478355;248;27663;-66
2024/01/05 09:08:15;;;;;;;4.68;2.75;;;6.60;99.90;;;;;;478467;248;27423;-67
2024/01/05 09:10:17;;;;;;;4.95;2.25;;;6.60;99.90;;;;;;478447;247;27422;-67
2024/01/05 09:12:18;;;;;;;8.43;2.58;;;6.60;99.90;;;;;;478462;248;27424;-66
2024/01/05 09:14:19;;;;;;;5.83;2.40;;;6.60;99.90;;;;;;478432;248;27875;-66
2024/01/05 09:16:20;;;;;;;7.47;3.03;;;6.70;99.90;;;;;;478436;248;29018;-66
2024/01/05 09:18:22;;;;;;;7.75;3.08;;;6.70;99.90;;;;;;484967;245;29281;-66
2024/01/05 09:20:23;;;;;;;12.50;3.23;;;6.80;99.90;;;;;;485196;245;27477;-67
2024/01/05 09:22:24;;;;;;;6.20;2.53;;;6.80;99.90;;;;;;485195;245;27392;-66
2024/01/05 09:24:28;;;;;;;4.83;2.40;;;6.80;99.90;;;;;;485196;245;28818;-67
2024/01/05 09:26:27;;;;;;;5.37;2.70;;;6.80;99.90;;;;;;485017;245;28296;-66
2024/01/05 09:28:28;;;;;;;5.93;2.37;;;6.80;99.90;;;;;;485254;245;27487;-67
2024/01/05 09:30:29;;;;;;;5.70;2.60;;;6.90;99.90;;;;;;485261;245;27871;-67
2024/01/05 09:32:31;;;;;;;5.60;2.47;;;6.80;99.90;;;;;;485246;245;27899;-66
2024/01/05 09:34:32;;;;;;;7.23;2.87;;;6.80;99.90;;;;;;485218;245;27403;-67
2024/01/05 09:36:33;;;;;;;8.27;2.50;;;6.80;99.90;;;;;;485255;245;29340;-67
2024/01/05 09:38:34;;;;;;;8.20;2.60;;;6.80;99.90;;;;;;485259;245;28351;-66
2024/01/05 09:40:36;;;;;;;4.00;2.37;;;6.80;99.90;;;;;;485261;245;28103;-67
2024/01/05 09:42:37;;;;;;;4.20;2.20;;;6.80;99.90;;;;;;485238;245;29188;-66
2024/01/05 09:44:38;;;;;;;5.50;2.60;;;6.80;99.90;;;;;;485233;245;28401;-67
2024/01/05 09:46:39;;;;;;;4.77;2.40;;;6.80;99.90;;;;;;485259;245;27518;-68
2024/01/05 09:48:41;;;;;;;7.47;2.53;;;6.80;99.90;;;;;;485223;245;27879;-66
2024/01/05 09:50:42;;;;;;;4.40;2.00;;;6.90;99.90;;;;;;485134;245;28282;-67
2024/01/05 09:52:43;;;;;;;13.20;3.27;;;7.00;99.90;;;;;;485248;245;28044;-66
2024/01/05 09:54:46;;;;;;;3.80;2.27;;;7.00;99.90;;;;;;485218;245;27955;-66
2024/01/05 09:56:47;;;;;;;6.07;2.17;;;7.10;99.90;;;;;;485182;245;28093;-67
2024/01/05 09:58:47;;;;;;;2.40;1.63;;;7.20;99.90;;;;;;485190;245;27879;-66
2024/01/05 10:00:48;;;;;;;7.23;2.07;;;7.20;99.90;;;;;;485242;245;27887;-66
2024/01/05 10:02:49;;;;;;;3.33;2.03;;;7.20;99.90;;;;;;485226;245;27631;-66
2024/01/05 10:04:51;;;;;;;3.03;1.83;;;7.30;99.90;;;;;;485229;245;27639;-66
2024/01/05 10:06:52;;;;;;;8.40;2.23;;;7.40;99.90;;;;;;485258;245;27855;-68
2024/01/05 10:08:54;;;;;;;3.50;1.90;;;7.40;99.90;;;;;;485199;245;27996;-66
2024/01/05 10:11:01;;;;;;;7.30;2.50;;;7.40;99.90;;;;;;485231;245;27849;-68
2024/01/05 10:12:55;;;;;;;4.87;2.40;;;7.50;99.90;;;;;;484763;245;28428;-67
2024/01/05 10:14:57;;;;;;;5.67;2.30;;;7.50;99.90;;;;;;485214;245;28340;-66
2024/01/05 10:16:58;;;;;;;6.50;2.00;;;7.50;99.90;;;;;;485256;245;28403;-66
2024/01/05 10:18:59;;;;;;;8.80;2.40;;;7.60;99.90;;;;;;485259;245;28324;-66
2024/01/05 10:21:00;;;;;;;5.00;2.57;;;7.60;99.90;;;;;;485219;245;28257;-66
2024/01/05 10:23:02;;;;;;;4.93;1.90;;;7.60;99.90;;;;;;485248;242;27976;-67
2024/01/05 10:25:03;;;;;;;4.13;1.90;;;7.70;99.90;;;;;;485209;245;27761;-66
2024/01/05 10:27:04;;;;;;;5.13;1.97;;;7.70;99.90;;;;;;485242;245;27760;-66
2024/01/05 10:29:05;;;;;;;5.03;1.70;;;7.80;99.90;;;;;;485254;245;27402;-67
2024/01/05 10:31:07;;;;;;;7.37;2.17;;;7.80;99.90;;;;;;485246;245;28066;-66
2024/01/05 10:33:08;;;;;;;3.43;1.67;;;7.70;99.90;;;;;;485237;245;27871;-67
2024/01/05 10:35:09;;;;;;;4.53;1.80;;;7.60;99.90;;;;;;485219;245;27836;-66
2024/01/05 10:37:10;;;;;;;5.40;2.23;;;7.60;99.90;;;;;;485240;245;27870;-67